This is the latest recevied weather packets stored in our database for station/object IW2DGQ-3. If no packets are shown the sender has not sent any weather packets the latest 10 day(s).
| Time | Temp. | Humidity | Pressure | Rain* | Wind** | Luminosity | Snow |
|---|---|---|---|---|---|---|---|
| 1787655567 | 28.89° C | 56% | 1011.5 hPa | - | - | - | - |
| 1787654367 | 28.33° C | 57% | 1011.6 hPa | - | - | - | - |
| 1787653168 | 28.89° C | 56% | 1011.5 hPa | - | - | - | - |
| 1787651967 | 27.78° C | 58% | 1011.4 hPa | - | - | - | - |
| 1787650766 | 27.78° C | 55% | 1011.5 hPa | - | - | - | - |
| 1787649566 | 30° C | 50% | 1011.5 hPa | - | - | - | - |
| 1787648366 | 31.11° C | 50% | 1011.8 hPa | - | - | - | - |
| 1787647165 | 28.89° C | 56% | 1011.9 hPa | - | - | - | - |
| 1787645965 | 30.56° C | 53% | 1011.9 hPa | - | - | - | - |
| 1787644765 | 31.67° C | 53% | 1011.9 hPa | - | - | - | - |
| 1787643564 | 29.44° C | 59% | 1011.8 hPa | - | - | - | - |
| 1787642364 | 28.33° C | 57% | 1011.6 hPa | - | - | - | - |
| 1787641164 | 29.44° C | 57% | 1011.7 hPa | - | - | - | - |
| 1787639963 | 26.67° C | 55% | 1011.3 hPa | - | - | - | - |
| 1787638763 | 29.44° C | 55% | 1011 hPa | - | - | - | - |
| 1787637563 | 28.89° C | 60% | 1011 hPa | - | - | - | - |
| 1787636362 | 27.22° C | 72% | 1010.9 hPa | - | - | - | - |
| 1787635162 | 20.56° C | 89% | 1010.8 hPa | - | - | - | - |
| 1787633962 | 19.44° C | 89% | 1010.8 hPa | - | - | - | - |
| 1787632761 | 18.89° C | 89% | 1011 hPa | - | - | - | - |
| 1787631561 | 18.89° C | 89% | 1010.8 hPa | - | - | - | - |
| 1787630361 | 18.89° C | 89% | 1010.9 hPa | - | - | - | - |
| 1787629161 | 18.89° C | 91% | 1010.7 hPa | - | - | - | - |
| 1787627960 | 18.33° C | 94% | 1011.2 hPa | - | - | - | - |
| 1787626760 | 18.33° C | 96% | 1011.4 hPa | - | - | - | - |
* Rain since midnight (hover to see other rain measurements)
** Current wind speed in m/s (hover to see current wind gust speed)